createdAt,value
2018-01-18T00:07:15.015Z,5
2018-01-18T00:17:41.717Z,5
2018-01-18T00:36:53.516Z,5
2018-01-18T00:47:32.568Z,5
2018-01-18T01:27:09.761Z,5
2018-01-18T01:36:59.584Z,5
2018-01-18T01:47:14.992Z,4
2018-01-18T02:07:08.316Z,6
2018-01-18T02:27:23.267Z,5
2018-01-18T02:37:27.507Z,5
2018-01-18T03:17:00.256Z,4
2018-01-18T03:26:58.636Z,4
2018-01-18T03:47:17.708Z,4
2018-01-18T04:06:59.225Z,4
2018-01-18T04:16:53.523Z,4
2018-01-18T04:26:57.735Z,4
2018-01-18T04:37:04.954Z,4
2018-01-18T04:57:02.317Z,4
2018-01-18T05:07:36.791Z,3
2018-01-18T05:17:27.522Z,2
2018-01-18T05:26:57.536Z,2
2018-01-18T05:36:54.479Z,2
2018-01-18T05:57:39.268Z,2
2018-01-18T06:06:52.439Z,2
2018-01-18T06:17:04.090Z,1
2018-01-18T06:26:52.457Z,1
2018-01-18T06:57:23.114Z,2
2018-01-18T07:27:07.875Z,2
2018-01-18T07:47:34.228Z,4
2018-01-18T08:16:57.024Z,4
2018-01-18T08:27:00.081Z,3
2018-01-18T08:36:57.770Z,2
2018-01-18T08:46:57.334Z,2
2018-01-18T09:37:15.305Z,3
2018-01-18T10:16:52.380Z,2
2018-01-18T10:46:52.364Z,2
2018-01-18T11:07:25.136Z,1
2018-01-18T11:27:05.389Z,1
2018-01-18T11:46:52.368Z,1
2018-01-18T12:07:30.787Z,1
2018-01-18T12:16:52.515Z,0
2018-01-18T12:26:53.536Z,0
2018-01-18T12:36:52.483Z,0
2018-01-18T12:46:52.482Z,1
2018-01-18T12:56:52.440Z,0
2018-01-18T13:06:52.493Z,1
2018-01-18T13:16:52.374Z,1
2018-01-18T13:26:52.377Z,1
2018-01-18T13:36:52.501Z,1
2018-01-18T13:46:52.429Z,1
2018-01-18T13:56:52.495Z,0
2018-01-18T14:06:52.688Z,1
2018-01-18T14:16:52.648Z,1
2018-01-18T14:26:52.620Z,1
2018-01-18T14:36:54.356Z,1
2018-01-18T14:46:52.616Z,1
2018-01-18T14:56:52.544Z,2
2018-01-18T15:06:52.371Z,1
2018-01-18T15:16:52.365Z,1
2018-01-18T15:26:52.489Z,1
2018-01-18T15:36:52.402Z,1
2018-01-18T15:46:52.452Z,1
2018-01-18T15:56:52.384Z,2
2018-01-18T16:06:52.348Z,1
2018-01-18T16:16:52.585Z,2
2018-01-18T16:26:52.511Z,3
2018-01-18T16:36:52.505Z,2
2018-01-18T16:46:52.460Z,2
2018-01-18T16:56:52.403Z,2
2018-01-18T17:06:52.418Z,2
2018-01-18T17:16:52.343Z,2
2018-01-18T17:26:52.364Z,2
2018-01-18T17:36:53.353Z,3
2018-01-18T17:46:52.506Z,2
2018-01-18T17:56:52.265Z,2
2018-01-18T18:06:52.587Z,3
2018-01-18T18:16:52.388Z,4
2018-01-18T18:26:52.696Z,3
2018-01-18T18:36:52.594Z,4
2018-01-18T18:46:52.372Z,4
2018-01-18T18:56:52.622Z,4
2018-01-18T19:06:52.388Z,4
2018-01-18T19:16:52.504Z,4
2018-01-18T19:26:53.094Z,4
2018-01-18T19:36:52.791Z,3
2018-01-18T19:46:52.925Z,4
2018-01-18T19:56:52.430Z,4
2018-01-18T20:06:52.800Z,4
2018-01-18T20:16:52.393Z,6
2018-01-18T20:26:52.384Z,5
2018-01-18T20:36:52.433Z,7
2018-01-18T20:46:52.543Z,5
2018-01-18T20:56:52.439Z,5
2018-01-18T21:06:52.505Z,5
2018-01-18T21:16:52.387Z,6
2018-01-18T21:26:52.467Z,5
2018-01-18T21:36:52.382Z,5
2018-01-18T21:46:52.593Z,4
2018-01-18T21:56:52.444Z,5
2018-01-18T22:06:52.432Z,4
2018-01-18T22:16:52.427Z,6
2018-01-18T22:26:52.565Z,6
2018-01-18T22:36:52.370Z,7
2018-01-18T22:46:52.371Z,9
2018-01-18T22:56:52.516Z,9
2018-01-18T23:06:53.063Z,9
2018-01-18T23:16:53.005Z,9
2018-01-18T23:26:52.450Z,9
2018-01-18T23:36:52.361Z,10
2018-01-18T23:46:52.310Z,13
2018-01-18T23:56:52.312Z,9
